CheckWX is a tool to help pilots better visualize weather data.  It is not intended as a substitute for an official pre-flight weather briefing.

13:41:55 UTC

FYOA METAR
Ondangwa Airport
Ondangwa, Namibia
Current

42 mins ago

FYOA 201300Z 06004KT CAVOK 31/M05 Q1019
Observed
Jul-20 @ 13:00 UTC
Wind
  • 060° at 4 KTS
Visibility
10,000+ meters
Flight Rules
VFR
Cloud Levels
  • Clear skies
Temperature
31°C / 88°F
Dewpoint
-5°C / 23°F
Humidity
9%
Altimeter
30.09" Hg
Pressure
1018.92 hPa
Previous

2 hours ago

FYOA 201200Z 06007KT CAVOK 30/M03 Q1020
Observed
Jul-20 @ 12:00 UTC
Wind
  • 060° at 7 KTS
Visibility
10,000+ meters
Flight Rules
VFR
Cloud Levels
  • Clear skies
Temperature
30°C / 86°F
Dewpoint
-3°C / 27°F
Humidity
11%
Altimeter
30.12" Hg
Pressure
1019.92 hPa
Previous

3 hours ago

FYOA 201100Z 06007KT CAVOK 29/M03 Q1022
Observed
Jul-20 @ 11:00 UTC
Wind
  • 060° at 7 KTS
Visibility
10,000+ meters
Flight Rules
VFR
Cloud Levels
  • Clear skies
Temperature
29°C / 84°F
Dewpoint
-3°C / 27°F
Humidity
12%
Altimeter
30.18" Hg
Pressure
1021.92 hPa